Watton, Michigan
Current Conditions -  °F | °C
As of 7:15 AM on Monday 24 Nov 2014 (Local Time) from KLNL Reporting Station
Drizzle Drizzle  
Wind Chill: 29°   Ceiling: 400
Heat Index: 37°   Visibility: 7mi
Dew Point: 37°   Wind: 10mph
Humidity: 100%   Direction: 330°NNW
Pressure: 29.05"   Gusts: NA
Location:  46.54°N, 88.61°W
Report Text: KLNL 241215Z AUTO 33009KT 7SM DZ OVC004 03/03 A2905 RMK AO2 T00250025
Loading
Personal Weather Stations






























Interactive Weather Map New forecast layout! Learn more

10-Day Weather Forecast

Advertisements
Track Severe Weather on mobile